Kehlen, Luxembourg
Current Conditions -  °F | °C
As of 5:20 AM on Monday 26 Jan 2015 (Local Time) from ELLX Reporting Station
Light Snow Light Snow  
Wind Chill: 26°   Ceiling: 400
Heat Index: 32°   Visibility: 0.68mi
Dew Point: 32°   Wind: 6mph
Humidity: 100%   Direction: 210°SSW
Pressure: 30.27"   Gusts: NA
Location:  49.67°N, 6.04°E
Report Text: ELLX 260420Z 21005KT 180V240 1100 R24/P1500N -SN BR SCT001 BKN004 00/00 Q1025 NOSIG
Loading
Personal Weather Stations






























Interactive Weather Map New forecast layout! Learn more

10-Day Weather Forecast

Advertisements
Track Severe Weather on mobile